Time;durP1;ratioP1;P1;durP2;ratioP2;P2;SDS_P1;SDS_P2;PMS_P1;PMS_P2;Temp;Humidity;BMP_temperature;BMP_pressure;BME280_temperature;BME280_humidity;BME280_pressure;Samples;Min_cycle;Max_cycle;Signal;HPM_P1;HPM_P2
2022/07/01 00:00:49;;;;;;;10.60;9.50;;;23.70;94.20;;;;;;5043549;28;20427;-68
2022/07/01 00:03:15;;;;;;;10.50;9.43;;;23.70;94.30;;;;;;5051806;28;20032;-68
2022/07/01 00:05:40;;;;;;;11.25;8.70;;;23.70;94.40;;;;;;5050105;28;20049;-68
2022/07/01 00:08:06;;;;;;;11.45;10.25;;;23.70;94.40;;;;;;5048790;28;20306;-68
2022/07/01 00:10:31;;;;;;;12.88;10.25;;;23.70;94.50;;;;;;5039258;28;20079;-68
2022/07/01 00:12:57;;;;;;;12.18;10.90;;;23.70;94.60;;;;;;5052938;28;20033;-67
2022/07/01 00:15:23;;;;;;;11.90;9.85;;;23.60;94.80;;;;;;5037270;28;20492;-68
2022/07/01 00:17:49;;;;;;;10.90;9.35;;;23.60;94.90;;;;;;5045341;28;20063;-68
2022/07/01 00:20:15;;;;;;;12.02;10.63;;;23.60;95.00;;;;;;5048108;28;20081;-68
2022/07/01 00:22:41;;;;;;;11.57;10.25;;;23.60;95.10;;;;;;5045974;28;20025;-68
2022/07/01 00:25:07;;;;;;;12.82;10.88;;;23.60;95.20;;;;;;5042696;28;20033;-68
2022/07/01 00:27:36;;;;;;;12.20;10.10;;;23.60;95.30;;;;;;5038465;28;20033;-68
2022/07/01 00:30:01;;;;;;;12.68;10.73;;;23.50;95.40;;;;;;5043383;28;20033;-67
2022/07/01 00:32:27;;;;;;;11.95;10.68;;;23.50;95.50;;;;;;5037712;28;20044;-68
2022/07/01 00:34:53;;;;;;;13.73;11.23;;;23.50;95.60;;;;;;5045039;28;20049;-68
2022/07/01 00:37:18;;;;;;;13.27;11.50;;;23.40;95.70;;;;;;5037876;28;20387;-68
2022/07/01 00:39:44;;;;;;;13.20;10.90;;;23.40;95.80;;;;;;5040025;28;20454;-67
2022/07/01 00:42:09;;;;;;;12.90;11.45;;;23.40;95.90;;;;;;5052024;28;20032;-66
2022/07/01 00:44:35;;;;;;;11.98;10.77;;;23.40;96.00;;;;;;5038821;28;20427;-67
2022/07/01 00:47:03;;;;;;;12.20;10.93;;;23.40;96.10;;;;;;5046490;28;20534;-67
2022/07/01 00:49:29;;;;;;;12.68;11.02;;;23.30;96.20;;;;;;5038580;28;20072;-67
2022/07/01 00:51:55;;;;;;;14.48;11.60;;;23.30;96.20;;;;;;5031788;28;20493;-67
2022/07/01 00:54:21;;;;;;;12.15;10.98;;;23.30;96.30;;;;;;5035653;28;20144;-67
2022/07/01 00:56:48;;;;;;;14.07;12.57;;;23.30;96.40;;;;;;5033309;28;20021;-68
2022/07/01 00:59:14;;;;;;;12.55;10.90;;;23.30;96.40;;;;;;5037874;28;20143;-68
2022/07/01 01:01:40;;;;;;;14.52;12.40;;;23.30;96.50;;;;;;5044178;28;20029;-68
2022/07/01 01:04:05;;;;;;;11.82;10.60;;;23.30;96.60;;;;;;5037870;28;20586;-68
2022/07/01 01:06:31;;;;;;;12.98;11.45;;;23.30;96.60;;;;;;5034352;28;20041;-67
2022/07/01 01:08:57;;;;;;;14.95;13.35;;;23.30;96.70;;;;;;5048424;28;20037;-68
2022/07/01 01:11:22;;;;;;;13.02;11.57;;;23.30;96.70;;;;;;5039930;28;20477;-68
2022/07/01 01:13:48;;;;;;;14.48;11.98;;;23.30;96.80;;;;;;5048570;28;20025;-68
2022/07/01 01:16:21;;;;;;;13.82;12.43;;;23.30;96.80;;;;;;5040508;28;20507;-68
2022/07/01 01:18:46;;;;;;;14.10;12.73;;;23.30;96.90;;;;;;5064618;28;20027;-68
2022/07/01 01:21:12;;;;;;;13.88;12.38;;;23.30;96.90;;;;;;5042559;28;21420;-68
2022/07/01 01:23:38;;;;;;;14.18;12.68;;;23.30;97.00;;;;;;5046512;28;20090;-68
2022/07/01 01:26:03;;;;;;;17.17;13.07;;;23.30;97.00;;;;;;5043966;28;20063;-68
2022/07/01 01:28:29;;;;;;;13.88;12.38;;;23.30;97.00;;;;;;5049443;28;20036;-68
2022/07/01 01:30:54;;;;;;;13.18;11.52;;;23.30;97.10;;;;;;5045195;28;20025;-68
2022/07/01 01:33:20;;;;;;;14.93;12.98;;;23.30;97.10;;;;;;5044589;28;20037;-68
2022/07/01 01:35:46;;;;;;;13.63;12.23;;;23.30;97.20;;;;;;5046726;28;20538;-67
2022/07/01 01:38:12;;;;;;;14.38;11.65;;;23.30;97.20;;;;;;5037399;28;20116;-68
2022/07/01 01:40:37;;;;;;;13.68;12.27;;;23.30;97.20;;;;;;5044602;28;20025;-68
2022/07/01 01:43:03;;;;;;;16.88;14.00;;;23.20;97.20;;;;;;5044632;28;20079;-68
2022/07/01 01:45:29;;;;;;;13.52;11.70;;;23.20;97.30;;;;;;5046338;28;20575;-67
2022/07/01 01:47:54;;;;;;;15.30;12.77;;;23.20;97.40;;;;;;5049626;28;20029;-67
2022/07/01 01:50:20;;;;;;;13.52;11.52;;;23.20;97.40;;;;;;5052062;28;20397;-67
2022/07/01 01:52:46;;;;;;;14.90;12.85;;;23.20;97.40;;;;;;5049476;28;20114;-67
2022/07/01 01:55:13;;;;;;;13.90;12.15;;;23.20;97.50;;;;;;5049583;28;20060;-67
2022/07/01 01:57:38;;;;;;;14.73;13.13;;;23.20;97.60;;;;;;5043597;28;20033;-67
2022/07/01 02:00:07;;;;;;;17.27;13.23;;;23.20;97.60;;;;;;5032268;28;20029;-67
2022/07/01 02:02:36;;;;;;;19.35;13.73;;;23.10;97.70;;;;;;5038093;28;20025;-67
2022/07/01 02:05:02;;;;;;;15.20;13.48;;;23.10;97.70;;;;;;5050917;28;20029;-68
2022/07/01 02:07:28;;;;;;;15.05;13.45;;;23.10;97.80;;;;;;5044677;28;20107;-68
2022/07/01 02:09:54;;;;;;;16.65;14.35;;;23.10;97.90;;;;;;5051728;28;20116;-67
2022/07/01 02:12:19;;;;;;;16.65;14.07;;;23.10;98.00;;;;;;5045313;28;20106;-67
2022/07/01 02:14:46;;;;;;;18.17;15.43;;;23.00;98.10;;;;;;5051799;28;20053;-68
2022/07/01 02:17:11;;;;;;;19.38;15.00;;;23.00;98.20;;;;;;5045213;28;20464;-67
2022/07/01 02:19:37;;;;;;;16.58;14.43;;;23.00;98.30;;;;;;5050862;28;20027;-68
2022/07/01 02:22:02;;;;;;;16.73;14.77;;;22.90;98.40;;;;;;5046248;28;20040;-68
2022/07/01 02:24:28;;;;;;;16.75;14.93;;;22.90;98.50;;;;;;5051635;28;20021;-68
2022/07/01 02:26:54;;;;;;;17.48;15.50;;;22.90;98.50;;;;;;5049062;28;20071;-68
2022/07/01 02:29:19;;;;;;;18.77;15.80;;;22.90;98.70;;;;;;5050925;28;20021;-68
2022/07/01 02:31:45;;;;;;;16.40;14.68;;;22.80;98.70;;;;;;5041766;28;20401;-67
2022/07/01 02:34:10;;;;;;;17.95;15.57;;;22.80;98.80;;;;;;5049316;28;20488;-68
2022/07/01 02:36:36;;;;;;;17.90;16.02;;;22.90;98.90;;;;;;5048435;28;20035;-68
2022/07/01 02:39:02;;;;;;;18.40;15.65;;;22.80;98.90;;;;;;5038221;28;20025;-67
2022/07/01 02:41:27;;;;;;;16.13;14.00;;;22.80;99.00;;;;;;5046984;28;20037;-67
2022/07/01 02:43:53;;;;;;;17.33;15.55;;;22.80;99.00;;;;;;5047334;28;20025;-66
2022/07/01 02:46:18;;;;;;;17.45;14.82;;;22.80;99.00;;;;;;5048438;28;20040;-67
2022/07/01 02:48:44;;;;;;;18.17;15.52;;;22.80;99.10;;;;;;5046635;28;20052;-67
2022/07/01 02:51:09;;;;;;;19.25;15.95;;;22.80;99.20;;;;;;5043101;28;20033;-67
2022/07/01 02:53:35;;;;;;;18.20;16.20;;;22.80;99.20;;;;;;5045258;28;20037;-69
2022/07/01 02:56:00;;;;;;;22.83;16.83;;;22.80;99.20;;;;;;5045574;28;20108;-66
2022/07/01 02:58:26;;;;;;;17.67;15.00;;;22.80;99.30;;;;;;5043183;28;20033;-65
2022/07/01 03:00:52;;;;;;;19.35;16.05;;;22.80;99.30;;;;;;5049778;28;20412;-66
2022/07/01 03:03:19;;;;;;;19.05;15.18;;;22.80;99.40;;;;;;5043842;28;20400;-66
2022/07/01 03:05:44;;;;;;;20.02;16.67;;;22.80;99.40;;;;;;5051228;28;20087;-67
2022/07/01 03:08:10;;;;;;;16.55;14.77;;;22.80;99.40;;;;;;5049749;28;20045;-67
2022/07/01 03:10:35;;;;;;;17.25;15.35;;;22.80;99.40;;;;;;5050821;28;20558;-67
2022/07/01 03:13:01;;;;;;;22.42;16.17;;;22.80;99.40;;;;;;5040131;28;20037;-67
2022/07/01 03:15:28;;;;;;;19.92;16.42;;;22.80;99.50;;;;;;5046318;28;20026;-67
2022/07/01 03:17:53;;;;;;;17.85;16.08;;;22.80;99.50;;;;;;5040099;28;20043;-67
2022/07/01 03:20:19;;;;;;;17.58;15.68;;;22.90;99.50;;;;;;5047928;28;20104;-67
2022/07/01 03:22:46;;;;;;;18.50;16.00;;;22.80;99.50;;;;;;5038208;28;20025;-67
2022/07/01 03:25:12;;;;;;;18.65;15.38;;;22.80;99.60;;;;;;5048561;28;20090;-67
2022/07/01 03:27:44;;;;;;;20.65;16.08;;;22.80;99.60;;;;;;5036853;28;20435;-67
2022/07/01 03:30:11;;;;;;;18.08;15.70;;;22.80;99.60;;;;;;5049218;28;20028;-65
2022/07/01 03:32:36;;;;;;;20.08;16.33;;;22.90;99.60;;;;;;5037103;28;20124;-68
2022/07/01 03:35:35;;;;;;;17.05;15.35;;;22.90;99.60;;;;;;5050837;28;20455;-66
2022/07/01 03:37:49;;;;;;;17.58;15.73;;;22.90;99.60;;;;;;5049867;28;20443;-66
2022/07/01 03:40:14;;;;;;;18.67;16.77;;;22.90;99.60;;;;;;5043202;28;20017;-66
2022/07/01 03:42:40;;;;;;;18.70;16.20;;;23.00;99.70;;;;;;5045288;28;20210;-66
2022/07/01 03:45:06;;;;;;;18.73;16.00;;;23.00;99.70;;;;;;5045584;28;20017;-66
2022/07/01 03:47:32;;;;;;;18.67;16.55;;;23.00;99.70;;;;;;5039463;28;20029;-65
2022/07/01 03:49:58;;;;;;;19.48;16.90;;;23.00;99.70;;;;;;5051108;28;20018;-66
2022/07/01 03:52:23;;;;;;;18.25;16.35;;;23.00;99.70;;;;;;5037896;28;20037;-69
2022/07/01 03:54:49;;;;;;;21.33;15.73;;;23.00;99.70;;;;;;5054183;28;20025;-69
2022/07/01 03:57:14;;;;;;;18.33;16.25;;;23.10;99.70;;;;;;5049253;28;20044;-68
2022/07/01 03:59:40;;;;;;;20.25;17.17;;;23.10;99.80;;;;;;5053448;28;20021;-66
2022/07/01 04:02:06;;;;;;;19.23;17.15;;;23.10;99.70;;;;;;5052450;28;20025;-66
2022/07/01 04:04:33;;;;;;;20.48;17.48;;;23.10;99.80;;;;;;5036698;28;20419;-65
2022/07/01 04:07:00;;;;;;;17.20;15.35;;;23.20;99.80;;;;;;5034657;28;20112;-65
2022/07/01 04:09:27;;;;;;;18.90;16.90;;;23.20;99.80;;;;;;5037256;28;20045;-65
2022/07/01 04:11:53;;;;;;;19.70;17.60;;;23.20;99.80;;;;;;5051841;28;20033;-66
2022/07/01 04:14:19;;;;;;;18.48;16.45;;;23.20;99.80;;;;;;5038586;28;20038;-66
2022/07/01 04:16:45;;;;;;;22.25;17.42;;;23.30;99.80;;;;;;5034355;28;20436;-66
2022/07/01 04:19:13;;;;;;;21.10;18.02;;;23.30;99.90;;;;;;5046104;28;20393;-67
2022/07/01 04:24:24;;;;;;;19.77;15.95;;;23.30;99.90;;;;;;5053612;28;20048;-67
2022/07/01 04:26:50;;;;;;;19.50;17.25;;;23.40;99.90;;;;;;5053100;28;20116;-67
2022/07/01 04:29:15;;;;;;;20.15;17.58;;;23.40;99.90;;;;;;5052846;28;20112;-67
2022/07/01 04:31:41;;;;;;;21.85;18.13;;;23.50;99.90;;;;;;5035327;28;20045;-67
2022/07/01 04:34:08;;;;;;;18.98;16.77;;;23.50;99.80;;;;;;5051641;28;20476;-65
2022/07/01 04:36:34;;;;;;;18.27;16.38;;;23.60;99.80;;;;;;5036229;28;20087;-64
2022/07/01 04:39:00;;;;;;;18.35;16.38;;;23.60;99.80;;;;;;5050576;28;20123;-65
2022/07/01 04:44:10;;;;;;;21.70;16.45;;;23.70;99.80;;;;;;5051818;28;20106;-64
2022/07/01 04:46:36;;;;;;;19.05;17.10;;;23.80;99.70;;;;;;5036989;28;20030;-64
2022/07/01 04:49:02;;;;;;;19.83;17.60;;;23.80;99.70;;;;;;5050514;28;20113;-65
2022/07/01 04:51:28;;;;;;;18.88;16.88;;;23.80;99.70;;;;;;5042737;28;20033;-65
2022/07/01 04:53:54;;;;;;;18.27;16.35;;;23.80;99.60;;;;;;5052299;28;20542;-65
2022/07/01 04:56:20;;;;;;;20.95;18.42;;;23.90;99.60;;;;;;5040203;28;20108;-65
2022/07/01 04:58:46;;;;;;;18.98;16.90;;;23.90;99.60;;;;;;5047553;28;20033;-65
2022/07/01 05:01:11;;;;;;;20.02;17.45;;;24.00;99.60;;;;;;5049067;28;20021;-65
2022/07/01 05:03:37;;;;;;;21.38;19.05;;;24.00;99.50;;;;;;5051903;28;20029;-65
2022/07/01 05:06:03;;;;;;;21.33;17.83;;;24.10;99.50;;;;;;5049088;28;20103;-65
2022/07/01 05:08:28;;;;;;;20.05;17.95;;;24.10;99.60;;;;;;5050439;28;20052;-65
2022/07/01 05:10:54;;;;;;;21.08;17.42;;;24.20;99.40;;;;;;5045734;28;20017;-65
2022/07/01 05:13:20;;;;;;;18.27;16.40;;;24.20;99.30;;;;;;5044837;28;20532;-64
2022/07/01 05:15:45;;;;;;;18.38;16.45;;;24.30;99.30;;;;;;5040501;28;20125;-64
2022/07/01 05:23:39;;;;;;;19.38;15.80;;;24.40;99.30;;;;;;5047049;28;20040;-65
2022/07/01 05:26:05;;;;;;;18.50;16.52;;;24.50;99.10;;;;;;5038422;28;20018;-65
2022/07/01 05:28:31;;;;;;;20.40;17.25;;;24.60;99.20;;;;;;5043931;28;20065;-65
2022/07/01 05:30:56;;;;;;;19.30;16.88;;;24.70;99.20;;;;;;5037045;28;20021;-65
2022/07/01 05:33:26;;;;;;;19.80;17.38;;;24.70;99.10;;;;;;5034449;28;20079;-65
2022/07/01 05:35:52;;;;;;;19.13;16.52;;;24.80;99.10;;;;;;5034468;28;20088;-65
2022/07/01 05:38:18;;;;;;;19.10;17.10;;;24.90;99.10;;;;;;5046898;28;20056;-65
2022/07/01 05:40:44;;;;;;;20.33;18.17;;;25.10;99.10;;;;;;5050378;28;20052;-65
2022/07/01 05:43:09;;;;;;;19.17;15.23;;;25.20;98.80;;;;;;5046746;28;20029;-65
2022/07/01 05:45:35;;;;;;;18.10;16.20;;;25.40;98.60;;;;;;5051765;28;20544;-65
2022/07/01 05:48:00;;;;;;;18.23;16.27;;;25.60;98.50;;;;;;5046060;28;20058;-65
2022/07/01 05:50:26;;;;;;;19.73;16.45;;;25.80;98.40;;;;;;5042584;28;20074;-65
2022/07/01 05:52:51;;;;;;;19.50;15.88;;;25.90;98.00;;;;;;5040255;28;20186;-65
2022/07/01 05:55:17;;;;;;;16.50;14.82;;;26.00;98.00;;;;;;5049574;28;20032;-65
2022/07/01 05:57:42;;;;;;;19.08;15.57;;;26.10;97.70;;;;;;5045297;28;20040;-67
2022/07/01 06:00:09;;;;;;;19.13;15.80;;;26.10;97.40;;;;;;5035716;28;20028;-66
2022/07/01 06:02:35;;;;;;;19.50;16.35;;;26.20;97.20;;;;;;5033300;28;20322;-64
2022/07/01 06:05:02;;;;;;;18.05;16.15;;;26.20;97.00;;;;;;5033010;28;20041;-65
2022/07/01 06:07:27;;;;;;;17.75;15.85;;;26.30;97.00;;;;;;5036339;28;20045;-65
2022/07/01 06:09:53;;;;;;;16.52;14.43;;;26.40;96.70;;;;;;5048399;28;20381;-65
2022/07/01 06:12:18;;;;;;;21.48;15.75;;;26.40;96.70;;;;;;5035866;28;20751;-65
2022/07/01 06:14:44;;;;;;;17.27;15.55;;;26.50;96.60;;;;;;5034142;28;20104;-65
2022/07/01 06:17:10;;;;;;;17.27;15.48;;;26.60;96.40;;;;;;5034058;28;20387;-65
2022/07/01 06:19:38;;;;;;;19.42;16.48;;;26.70;96.30;;;;;;5051326;28;20499;-65
2022/07/01 06:22:04;;;;;;;20.65;15.90;;;26.70;96.20;;;;;;5046523;28;20106;-67
2022/07/01 06:24:29;;;;;;;17.80;14.75;;;26.80;96.10;;;;;;5045505;28;20092;-65
2022/07/01 06:26:55;;;;;;;18.00;16.13;;;27.00;95.60;;;;;;5034912;28;20093;-66
2022/07/01 06:29:21;;;;;;;17.17;15.32;;;27.10;95.50;;;;;;5034456;28;20033;-66
2022/07/01 06:31:46;;;;;;;16.73;14.95;;;27.20;95.40;;;;;;5038211;28;20032;-66
2022/07/01 06:34:12;;;;;;;16.73;15.07;;;27.30;95.10;;;;;;5043118;28;20385;-66
2022/07/01 06:36:37;;;;;;;17.45;15.55;;;27.40;94.80;;;;;;5038144;28;20029;-66
2022/07/01 06:39:03;;;;;;;18.92;16.92;;;27.50;94.90;;;;;;5035678;28;20112;-66
2022/07/01 06:41:28;;;;;;;17.90;16.08;;;27.50;94.70;;;;;;5034140;28;20171;-66
2022/07/01 06:43:55;;;;;;;18.95;16.25;;;27.50;94.60;;;;;;5035213;28;20067;-66
2022/07/01 06:46:21;;;;;;;18.85;16.95;;;27.60;94.40;;;;;;5034461;28;20029;-66
2022/07/01 06:48:47;;;;;;;17.75;15.98;;;27.60;94.10;;;;;;5043505;28;20025;-65
2022/07/01 06:51:13;;;;;;;19.05;16.30;;;27.60;94.00;;;;;;5043411;28;20033;-66
2022/07/01 06:53:39;;;;;;;19.30;15.82;;;27.60;94.10;;;;;;5049160;28;20439;-66
2022/07/01 06:56:05;;;;;;;17.67;15.88;;;27.60;94.20;;;;;;5050295;28;20063;-66
2022/07/01 06:58:31;;;;;;;20.70;17.50;;;27.50;94.00;;;;;;5049305;28;20062;-66
2022/07/01 07:00:56;;;;;;;17.70;15.25;;;27.60;93.90;;;;;;5050381;28;20025;-65
2022/07/01 07:03:22;;;;;;;19.05;15.98;;;27.60;93.90;;;;;;5049247;28;20036;-66
2022/07/01 07:05:48;;;;;;;17.92;15.55;;;27.70;93.90;;;;;;5050001;28;20492;-66
2022/07/01 07:08:13;;;;;;;19.65;17.65;;;27.70;93.70;;;;;;5049174;28;20114;-66
2022/07/01 07:10:39;;;;;;;17.60;15.75;;;27.70;93.80;;;;;;5049660;28;20025;-66
2022/07/01 07:13:05;;;;;;;18.17;16.27;;;27.70;93.70;;;;;;5049006;28;20043;-66
2022/07/01 07:15:30;;;;;;;18.02;15.52;;;27.80;93.70;;;;;;5049905;28;20524;-65
2022/07/01 07:17:57;;;;;;;18.48;16.45;;;27.80;93.40;;;;;;5049533;28;20571;-66
2022/07/01 07:20:26;;;;;;;17.60;15.52;;;27.90;93.40;;;;;;5051417;28;20043;-66
2022/07/01 07:22:52;;;;;;;18.58;16.58;;;27.90;93.30;;;;;;5053486;28;20085;-65
2022/07/01 07:25:18;;;;;;;18.90;16.05;;;28.00;93.30;;;;;;5053698;28;20053;-65
2022/07/01 07:27:46;;;;;;;17.20;15.43;;;28.10;92.90;;;;;;5051583;28;20079;-66
2022/07/01 07:30:14;;;;;;;16.70;14.95;;;28.20;93.20;;;;;;5053207;28;20068;-66
2022/07/01 07:32:40;;;;;;;17.52;15.60;;;28.20;92.70;;;;;;5053585;28;20047;-65
2022/07/01 07:35:06;;;;;;;17.73;15.93;;;28.20;92.60;;;;;;5053159;28;20017;-66
2022/07/01 07:37:32;;;;;;;18.70;15.85;;;28.20;92.30;;;;;;5052300;28;20025;-65
2022/07/01 07:40:03;;;;;;;18.92;15.15;;;28.20;92.20;;;;;;5053002;28;20485;-65
2022/07/01 07:42:29;;;;;;;14.80;13.35;;;28.20;92.20;;;;;;5052086;28;20059;-66
2022/07/01 07:44:55;;;;;;;14.63;13.13;;;28.20;91.60;;;;;;5053381;28;20029;-65
2022/07/01 07:47:21;;;;;;;14.95;13.40;;;28.20;91.60;;;;;;5052055;28;20126;-65
2022/07/01 07:49:47;;;;;;;15.82;13.43;;;28.20;91.20;;;;;;5053481;28;20025;-66
2022/07/01 07:52:12;;;;;;;14.48;12.90;;;28.30;91.00;;;;;;5051531;28;20496;-66
2022/07/01 07:54:38;;;;;;;12.50;11.30;;;28.30;91.30;;;;;;5043649;28;20037;-65
2022/07/01 07:57:05;;;;;;;13.10;11.75;;;28.30;90.70;;;;;;5050625;28;20029;-65
2022/07/01 07:59:30;;;;;;;12.82;10.63;;;28.40;90.60;;;;;;5053252;28;20326;-65
2022/07/01 08:01:56;;;;;;;14.13;10.98;;;28.40;89.90;;;;;;5051302;28;20456;-66
2022/07/01 08:04:22;;;;;;;12.70;10.93;;;28.40;90.00;;;;;;5053063;28;20036;-66
2022/07/01 08:06:47;;;;;;;11.05;9.95;;;28.30;89.80;;;;;;5050507;28;20067;-68
2022/07/01 08:09:13;;;;;;;12.15;10.75;;;28.40;88.90;;;;;;5052531;28;20098;-65
2022/07/01 08:11:39;;;;;;;11.15;9.63;;;28.30;88.70;;;;;;5052567;28;20037;-66
2022/07/01 08:14:05;;;;;;;11.10;9.75;;;28.30;88.30;;;;;;5049013;28;20028;-66
2022/07/01 08:16:33;;;;;;;11.13;9.70;;;28.30;88.60;;;;;;5053077;28;20392;-65
2022/07/01 08:18:59;;;;;;;12.10;10.93;;;28.30;88.80;;;;;;5050275;28;20029;-65
2022/07/01 08:21:24;;;;;;;10.90;9.90;;;28.20;88.40;;;;;;5051847;28;20035;-66
2022/07/01 08:23:50;;;;;;;10.55;9.55;;;28.20;88.20;;;;;;5060289;28;20472;-65
2022/07/01 08:26:16;;;;;;;12.60;9.80;;;28.10;87.30;;;;;;5053976;28;20025;-66
2022/07/01 08:28:42;;;;;;;13.10;9.85;;;28.20;87.90;;;;;;5056051;28;20086;-66
2022/07/01 08:31:09;;;;;;;13.05;9.38;;;28.20;87.50;;;;;;5052654;28;20025;-66
2022/07/01 08:33:34;;;;;;;17.83;10.73;;;28.20;87.40;;;;;;5049634;28;20394;-66
2022/07/01 08:36:00;;;;;;;10.93;9.77;;;28.20;88.30;;;;;;5067174;28;20037;-66
2022/07/01 08:38:25;;;;;;;13.15;9.65;;;28.30;88.20;;;;;;5051542;28;21694;-66
2022/07/01 08:40:51;;;;;;;10.52;9.52;;;28.40;88.10;;;;;;5050287;28;20036;-66
2022/07/01 08:43:16;;;;;;;10.95;9.85;;;28.50;88.10;;;;;;5051751;28;20056;-66
2022/07/01 08:45:42;;;;;;;12.82;9.93;;;28.50;87.50;;;;;;5050892;28;20135;-66
2022/07/01 08:48:08;;;;;;;10.90;9.80;;;28.60;87.80;;;;;;5052628;28;20033;-65
2022/07/01 08:50:39;;;;;;;12.52;9.95;;;28.70;87.40;;;;;;5051676;28;20502;-66
2022/07/01 08:53:05;;;;;;;11.38;10.27;;;28.80;87.30;;;;;;5052086;28;20041;-65
2022/07/01 08:55:32;;;;;;;11.13;10.07;;;28.80;87.50;;;;;;5050219;28;20033;-66
2022/07/01 08:57:58;;;;;;;10.77;9.50;;;28.80;86.90;;;;;;5054663;28;20056;-66
2022/07/01 09:00:33;;;;;;;10.98;9.38;;;28.80;86.50;;;;;;5051308;28;20105;-66
2022/07/01 09:03:01;;;;;;;12.00;10.70;;;28.80;86.70;;;;;;5050901;28;20443;-66
2022/07/01 09:05:30;;;;;;;11.02;10.02;;;28.80;86.80;;;;;;5051987;28;20473;-65
2022/07/01 09:08:01;;;;;;;10.73;9.45;;;28.90;86.70;;;;;;5047739;28;20041;-65
2022/07/01 09:10:29;;;;;;;11.77;10.30;;;29.00;86.50;;;;;;5059807;28;20112;-65
2022/07/01 09:12:54;;;;;;;12.90;10.40;;;29.10;86.50;;;;;;5047863;28;20033;-65
2022/07/01 09:15:20;;;;;;;13.07;10.68;;;29.10;85.60;;;;;;5048132;28;20090;-65
2022/07/01 09:17:45;;;;;;;11.23;9.93;;;29.20;85.10;;;;;;5048996;28;20025;-65
2022/07/01 09:20:29;;;;;;;13.27;10.57;;;29.10;85.20;;;;;;5052028;28;20033;-64
2022/07/01 09:23:07;;;;;;;10.57;9.52;;;29.10;85.40;;;;;;5050585;28;20404;-65
2022/07/01 09:25:44;;;;;;;11.77;10.02;;;29.20;85.20;;;;;;5051659;28;20124;-65
2022/07/01 09:28:10;;;;;;;13.18;10.18;;;29.20;85.10;;;;;;5051356;28;20384;-66
2022/07/01 09:30:37;;;;;;;12.52;6.25;;;29.10;85.00;;;;;;5051776;28;20036;-64
2022/07/01 09:33:11;;;;;;;7.22;4.72;;;29.10;84.50;;;;;;5050198;28;20040;-66
2022/07/01 09:35:38;;;;;;;5.70;4.00;;;28.80;84.50;;;;;;5067090;28;20376;-65
2022/07/01 09:38:05;;;;;;;7.30;4.13;;;28.60;84.50;;;;;;5047888;28;20502;-65
2022/07/01 09:40:50;;;;;;;6.82;3.35;;;28.40;84.40;;;;;;5047815;28;20036;-65
2022/07/01 09:43:21;;;;;;;4.68;3.30;;;28.20;84.70;;;;;;5051312;28;20365;-65
2022/07/01 09:45:57;;;;;;;3.22;2.55;;;28.00;84.70;;;;;;5054701;28;20033;-66
2022/07/01 09:48:26;;;;;;;3.67;2.55;;;27.90;84.80;;;;;;5050368;28;20488;-65
2022/07/01 09:50:52;;;;;;;4.00;2.03;;;27.80;84.80;;;;;;5066928;28;20040;-65
2022/07/01 09:53:18;;;;;;;5.88;2.00;;;27.60;84.50;;;;;;5040299;28;20033;-65
2022/07/01 09:55:44;;;;;;;6.10;2.38;;;27.40;84.60;;;;;;5050589;28;20058;-65
2022/07/01 09:58:10;;;;;;;3.38;2.15;;;27.10;84.80;;;;;;5045984;28;20037;-65
2022/07/01 10:00:37;;;;;;;4.40;2.42;;;27.00;85.10;;;;;;5047389;28;20037;-65
2022/07/01 10:03:06;;;;;;;4.45;2.10;;;26.90;85.30;;;;;;5043540;28;20021;-65
2022/07/01 10:05:39;;;;;;;2.92;1.83;;;26.70;85.50;;;;;;5044952;28;20103;-65
2022/07/01 10:08:43;;;;;;;3.70;2.03;;;26.40;85.80;;;;;;5049562;28;20071;-65
2022/07/01 10:11:34;;;;;;;2.33;1.75;;;26.20;86.10;;;;;;5032804;28;20067;-65
2022/07/01 10:14:13;;;;;;;2.53;1.70;;;26.00;86.30;;;;;;5050161;28;20500;-64
2022/07/01 10:16:39;;;;;;;2.53;1.83;;;25.90;86.90;;;;;;5046477;28;20159;-65
2022/07/01 10:19:24;;;;;;;3.47;1.77;;;25.70;87.40;;;;;;5048274;28;20056;-65
2022/07/01 10:21:53;;;;;;;2.45;1.80;;;25.60;87.60;;;;;;5039404;28;20108;-65
2022/07/01 10:24:20;;;;;;;2.78;1.75;;;25.50;87.90;;;;;;5049105;28;20033;-65
2022/07/01 10:26:46;;;;;;;3.53;1.67;;;25.40;88.20;;;;;;5047460;28;20028;-65
2022/07/01 10:29:28;;;;;;;2.40;1.50;;;25.30;88.40;;;;;;5049822;28;20025;-65
2022/07/01 10:31:58;;;;;;;5.20;1.60;;;25.20;88.50;;;;;;5049179;28;20029;-65
2022/07/01 10:34:32;;;;;;;2.30;1.50;;;25.20;88.90;;;;;;5044892;28;20033;-65
2022/07/01 10:37:04;;;;;;;3.33;1.58;;;25.20;88.90;;;;;;5048287;28;20284;-64
2022/07/01 10:39:30;;;;;;;2.03;1.55;;;25.10;89.00;;;;;;5036407;28;20079;-64
2022/07/01 10:41:58;;;;;;;3.63;2.08;;;25.00;89.10;;;;;;5062150;28;20025;-64
2022/07/01 10:44:26;;;;;;;2.67;1.67;;;24.90;89.20;;;;;;5048370;28;20028;-65
2022/07/01 10:47:00;;;;;;;7.07;1.63;;;24.70;89.60;;;;;;5045744;28;20491;-66
2022/07/01 10:49:35;;;;;;;2.42;1.83;;;24.50;90.00;;;;;;5042120;28;20087;-65
2022/07/01 10:52:03;;;;;;;;;;;24.50;90.10;;;;;;5043723;28;22602;-65
2022/07/01 10:54:42;;;;;;;2.45;1.30;;;24.40;90.10;;;;;;5047465;28;19995;-66
2022/07/01 10:57:18;;;;;;;2.60;1.50;;;24.20;90.40;;;;;;5050682;28;22558;-67
2022/07/01 10:59:51;;;;;;;1.85;1.15;;;24.00;90.70;;;;;;5058161;28;20024;-67
2022/07/01 11:02:26;;;;;;;2.40;1.40;;;23.90;90.70;;;;;;5053631;28;20044;-67
2022/07/01 11:04:57;;;;;;;2.45;1.20;;;23.80;90.70;;;;;;5036934;28;20074;-66
2022/07/01 11:07:28;;;;;;;1.70;1.10;;;23.70;90.80;;;;;;5047400;28;20033;-67
2022/07/01 11:09:55;;;;;;;3.05;1.30;;;23.60;91.00;;;;;;5054370;28;20045;-67
2022/07/01 11:12:25;;;;;;;1.65;1.23;;;23.50;91.00;;;;;;5051610;28;20080;-67
2022/07/01 11:14:51;;;;;;;1.92;1.33;;;23.40;91.10;;;;;;5054346;28;20029;-67
2022/07/01 11:17:18;;;;;;;1.08;0.90;;;23.40;91.20;;;;;;5051998;28;20033;-67
2022/07/01 11:19:52;;;;;;;1.55;0.73;;;23.30;91.20;;;;;;5054224;28;20024;-68
2022/07/01 11:22:25;;;;;;;;;;;23.20;91.40;;;;;;5050217;28;20021;-67
2022/07/01 11:25:00;;;;;;;1.23;0.85;;;23.10;91.40;;;;;;5053361;28;19912;-67
2022/07/01 11:27:27;;;;;;;4.00;1.10;;;23.00;91.70;;;;;;5046565;28;20434;-66
2022/07/01 11:29:57;;;;;;;1.00;0.85;;;22.90;91.90;;;;;;5053805;28;20095;-66
2022/07/01 11:32:26;;;;;;;1.75;1.20;;;22.90;92.00;;;;;;5045703;28;20045;-67
2022/07/01 11:34:53;;;;;;;2.38;1.30;;;22.80;92.00;;;;;;5053836;28;20048;-64
2022/07/01 11:40:11;;;;;;;2.30;1.40;;;22.70;92.20;;;;;;5056997;28;20029;-66
2022/07/01 11:42:37;;;;;;;3.72;1.55;;;22.60;92.30;;;;;;5051227;28;20380;-65
2022/07/01 11:45:04;;;;;;;2.58;1.23;;;22.60;92.70;;;;;;5067295;28;20048;-65
2022/07/01 11:47:30;;;;;;;1.42;1.30;;;22.50;93.20;;;;;;5046138;28;20029;-65
2022/07/01 11:49:56;;;;;;;1.90;1.40;;;22.60;93.70;;;;;;5051448;28;20032;-67
2022/07/01 11:52:23;;;;;;;3.50;1.20;;;22.60;93.90;;;;;;5052232;28;20041;-65
2022/07/01 11:54:54;;;;;;;2.55;1.30;;;22.60;94.20;;;;;;5057677;28;20089;-65
2022/07/01 11:57:23;;;;;;;2.03;1.55;;;22.60;94.30;;;;;;5052081;28;20140;-65
2022/07/01 11:59:51;;;;;;;2.30;1.50;;;22.60;94.20;;;;;;5055354;28;20035;-66
2022/07/01 12:02:18;;;;;;;2.90;1.83;;;22.50;94.50;;;;;;5057204;28;20098;-66
2022/07/01 12:04:45;;;;;;;2.80;1.50;;;22.40;94.60;;;;;;5050874;28;20025;-66
2022/07/01 12:07:13;;;;;;;10.38;1.50;;;22.30;94.80;;;;;;5056184;28;20542;-66
2022/07/01 12:09:39;;;;;;;2.88;1.88;;;22.30;95.00;;;;;;5055293;28;20037;-66
2022/07/01 12:12:05;;;;;;;1.95;1.50;;;22.30;95.20;;;;;;5037825;28;20036;-66
2022/07/01 12:14:35;;;;;;;3.55;1.80;;;22.30;95.50;;;;;;5048607;28;20036;-66
2022/07/01 12:17:05;;;;;;;2.20;1.70;;;22.40;95.60;;;;;;5046398;28;20622;-64
2022/07/01 12:19:37;;;;;;;3.30;2.03;;;22.50;95.70;;;;;;5044807;28;20036;-65
2022/07/01 12:22:09;;;;;;;3.55;2.30;;;22.50;95.30;;;;;;5038291;28;20028;-65
2022/07/01 12:24:35;;;;;;;3.00;2.30;;;22.50;95.20;;;;;;5039262;28;20096;-65
2022/07/01 12:27:02;;;;;;;3.30;2.60;;;22.60;95.10;;;;;;5051968;28;20040;-66
2022/07/01 12:29:48;;;;;;;3.60;2.53;;;22.60;95.10;;;;;;5050654;28;20029;-67
2022/07/01 12:32:15;;;;;;;3.85;2.78;;;22.50;95.00;;;;;;5051175;28;20068;-65
2022/07/01 12:34:46;;;;;;;3.67;2.22;;;22.50;95.20;;;;;;5038489;28;20083;-65
2022/07/01 12:37:13;;;;;;;4.10;2.88;;;22.50;95.00;;;;;;5050682;28;20033;-66
2022/07/01 12:40:03;;;;;;;3.78;2.97;;;22.60;94.90;;;;;;5043001;28;20029;-66
2022/07/01 12:42:33;;;;;;;4.72;3.08;;;22.60;94.90;;;;;;5039590;28;20116;-66
2022/07/01 12:45:04;;;;;;;5.22;2.53;;;22.70;95.00;;;;;;5053296;28;20127;-66
2022/07/01 12:47:35;;;;;;;3.33;2.78;;;22.90;94.80;;;;;;5065118;28;20109;-66